Terminal Aerodrome Forecast
Issued by NWS Cleveland, OH

Home | Current Version | Previous Version | Graphics & Text | Print | Product List | Glossary On
Versions: 1 2 3 4 5 6 7 8 9 10 11 12 13 14 15 16 17 18 19 20 21 22 23 24 25 26 27 28 29 30 31 32 33 34
059
FTUS41 KCLE 181139
TAFCLE
TAF
KCLE 181139Z 1812/1918 26012KT 6SM BR OVC008
      TEMPO 1812/1814 3SM -DZ BR OVC005
     FM181400 26010KT P6SM OVC008
     FM181900 24010KT P6SM OVC012
     FM182300 22006KT P6SM OVC015
     FM191600 22006KT P6SM SCT015 BKN250=

USA.gov is the U.S. government's official web portal to all federal, state and local government web resources and services.